< < Back
Terminal Aerodrome Forecast


Current Version              Previous Versions:   1  2  3  4  5  6  7  8  9  

Terminal Aerodrome Forecast

449
FTUS42 KCHS 272300
TAFSAV
TAF
KSAV 272340Z 2800/2824 24008KT P6SM SCT200
     FM281400 26012G18KT P6SM FEW040 SCT200
     FM282100 25010G17KT P6SM VCTS BKN050CB=



Latest METAR

228
SAUS80 KWBC 281000 RRA
MTRSAV
METAR KSAV 280953Z 24006KT 10SM SCT200 27/23 A2992 RMK AO2 SLP132 FIRST
AUGMENTED OBSERVATION T02720233


USA.gov is the U.S. government's official web portal to all federal, state and local government web resources and services.